Time;durP1;ratioP1;P1;durP2;ratioP2;P2;SDS_P1;SDS_P2;PMS_P1;PMS_P2;Temp;Humidity;BMP_temperature;BMP_pressure;BME280_temperature;BME280_humidity;BME280_pressure;Samples;Min_cycle;Max_cycle;Signal;HPM_P1;HPM_P2
2022/04/08 00:00:36;;;;;;;;;;;;;;;13.60;56.49;99398.19;1044650;28;626;-60
2022/04/08 00:01:26;;;;;;;;;;;;;;;13.61;56.51;99402.53;1044787;28;753;-61
2022/04/08 00:02:17;;;;;;;;;;;;;;;13.63;56.73;99405.88;1044013;28;618;-59
2022/04/08 00:03:08;;;;;;;;;;;;;;;13.65;56.96;99409.25;1045025;28;727;-61
2022/04/08 00:03:58;;;;;;;;;;;;;;;13.67;56.72;99412.63;1044128;28;1200;-61
2022/04/08 00:04:49;;;;;;;;;;;;;;;13.65;56.69;99401.22;1044571;28;684;-61
2022/04/08 00:05:39;;;;;;;;;;;;;;;13.65;57.31;99403.88;1044152;28;614;-60
2022/04/08 00:06:30;;;;;;;;;;;;;;;13.66;57.04;99411.78;1044775;28;622;-61
2022/04/08 00:07:20;;;;;;;;;;;;;;;13.68;56.54;99414.28;1044662;28;610;-61
2022/04/08 00:08:11;;;;;;;;;;;;;;;13.67;57.33;99409.94;1044200;28;622;-61
2022/04/08 00:09:01;;;;;;;;;;;;;;;13.68;56.79;99409.78;1044424;28;685;-61
2022/04/08 00:09:52;;;;;;;;;;;;;;;13.68;57.35;99415.13;1040812;28;688;-61
2022/04/08 00:10:42;;;;;;;;;;;;;;;13.63;57.11;99412.06;1040878;28;606;-61
2022/04/08 00:11:33;;;;;;;;;;;;;;;13.63;56.89;99412.06;1044822;28;645;-61
2022/04/08 00:12:23;;;;;;;;;;;;;;;13.63;56.83;99411.22;1044640;28;645;-60
2022/04/08 00:13:13;;;;;;;;;;;;;;;13.61;57.39;99418.59;1044719;28;638;-61
2022/04/08 00:14:04;;;;;;;;;;;;;;;13.60;57.49;99414.25;1044622;28;610;-61
2022/04/08 00:14:55;;;;;;;;;;;;;;;13.60;56.79;99414.25;1044510;28;626;-61
2022/04/08 00:15:45;;;;;;;;;;;;;;;13.63;56.86;99416.59;1044670;28;610;-60
2022/04/08 00:16:36;;;;;;;;;;;;;;;13.61;57.46;99426.63;1044766;28;708;-60
2022/04/08 00:17:26;;;;;;;;;;;;;;;13.58;56.96;99424.25;1044019;28;657;-60
2022/04/08 00:18:17;;;;;;;;;;;;;;;13.58;56.54;99421.56;1044679;28;700;-60
2022/04/08 00:19:08;;;;;;;;;;;;;;;13.57;56.66;99428.75;1044522;28;657;-61
2022/04/08 00:19:58;;;;;;;;;;;;;;;13.58;56.88;99424.25;1044593;28;587;-60
2022/04/08 00:20:49;;;;;;;;;;;;;;;13.57;57.66;99428.75;1044650;28;638;-61
2022/04/08 00:21:39;;;;;;;;;;;;;;;13.59;56.81;99423.25;1049173;28;676;-61
2022/04/08 00:22:29;;;;;;;;;;;;;;;13.57;56.81;99423.41;1049538;28;696;-61
2022/04/08 00:23:20;;;;;;;;;;;;;;;13.55;56.88;99420.88;1044619;28;1910;-61
2022/04/08 00:24:10;;;;;;;;;;;;;;;13.52;57.73;99421.19;1044759;28;704;-61
2022/04/08 00:25:01;;;;;;;;;;;;;;;13.48;56.73;99425.16;1044489;28;753;-61
2022/04/08 00:25:51;;;;;;;;;;;;;;;13.47;57.38;99434.19;1044610;28;603;-61
2022/04/08 00:26:42;;;;;;;;;;;;;;;13.46;57.03;99421.78;1044719;28;693;-61
2022/04/08 00:27:32;;;;;;;;;;;;;;;13.47;56.88;99444.88;1044602;28;642;-61
2022/04/08 00:28:22;;;;;;;;;;;;;;;13.44;56.89;99434.47;1044704;28;650;-62
2022/04/08 00:29:13;;;;;;;;;;;;;;;13.44;56.94;99439.84;1044592;28;618;-62
2022/04/08 00:30:03;;;;;;;;;;;;;;;13.47;57.48;99434.19;1044719;28;771;-61
2022/04/08 00:30:54;;;;;;;;;;;;;;;13.45;56.64;99438.84;1044734;28;598;-61
2022/04/08 00:31:44;;;;;;;;;;;;;;;13.46;56.70;99443.19;1044554;28;709;-61
2022/04/08 00:32:34;;;;;;;;;;;;;;;13.45;57.54;99446.88;1049129;28;740;-61
2022/04/08 00:33:25;;;;;;;;;;;;;;;13.43;56.64;99440.00;1049626;28;704;-61
2022/04/08 00:34:15;;;;;;;;;;;;;;;13.40;57.04;99443.00;1044723;28;567;-61
2022/04/08 00:35:06;;;;;;;;;;;;;;;13.40;57.10;99449.19;1044683;28;1038;-61
2022/04/08 00:35:56;;;;;;;;;;;;;;;13.40;57.04;99443.00;1044601;28;650;-61
2022/04/08 00:36:47;;;;;;;;;;;;;;;13.39;57.09;99435.94;1044730;28;705;-61
2022/04/08 00:37:38;;;;;;;;;;;;;;;13.39;57.18;99441.31;1044600;28;606;-61
2022/04/08 00:38:28;;;;;;;;;;;;;;;13.38;57.41;99444.97;1049060;28;650;-61
2022/04/08 00:39:19;;;;;;;;;;;;;;;13.38;57.70;99448.50;1049603;28;677;-61
2022/04/08 00:40:10;;;;;;;;;;;;;;;13.38;57.80;99444.97;1045349;28;624;-61
2022/04/08 00:41:01;;;;;;;;;;;;;;;13.37;57.22;99452.16;1045180;28;634;-61
2022/04/08 00:41:51;;;;;;;;;;;;;;;13.40;56.63;99443.81;1044573;28;582;-59
2022/04/08 00:42:42;;;;;;;;;;;;;;;13.41;57.45;99448.19;1049065;28;654;-60
2022/04/08 00:43:33;;;;;;;;;;;;;;;13.40;57.56;99451.84;1048232;28;1951;-60
2022/04/08 00:44:24;;;;;;;;;;;;;;;13.41;57.01;99442.84;1044577;28;618;-60
2022/04/08 00:45:15;;;;;;;;;;;;;;;13.41;57.13;99453.53;1045228;28;689;-60
2022/04/08 00:46:05;;;;;;;;;;;;;;;13.42;57.16;99455.22;1044529;28;654;-60
2022/04/08 00:46:55;;;;;;;;;;;;;;;13.43;57.36;99454.22;1044580;28;642;-60
2022/04/08 00:47:47;;;;;;;;;;;;;;;13.43;57.51;99464.94;1048205;28;1367;-60
2022/04/08 00:48:38;;;;;;;;;;;;;;;13.43;56.61;99462.25;1049339;28;649;-60
2022/04/08 00:49:28;;;;;;;;;;;;;;;13.41;57.30;99464.25;1049494;28;1624;-60
2022/04/08 00:50:22;;;;;;;;;;;;;;;13.42;56.66;99465.09;1049595;28;1615;-60
2022/04/08 00:51:12;;;;;;;;;;;;;;;13.41;57.52;99464.25;1042029;28;1442;-59
2022/04/08 00:52:02;;;;;;;;;;;;;;;13.41;56.88;99463.41;1045443;28;737;-59
2022/04/08 00:52:53;;;;;;;;;;;;;;;13.41;57.56;99461.56;1045924;28;586;-59
2022/04/08 00:53:45;;;;;;;;;;;;;;;13.41;56.57;99469.59;1045817;28;597;-58
2022/04/08 00:54:35;;;;;;;;;;;;;;;13.41;56.96;99460.72;1044690;28;598;-59
2022/04/08 00:55:26;;;;;;;;;;;;;;;13.41;56.38;99466.91;1044826;28;649;-59
2022/04/08 00:56:16;;;;;;;;;;;;;;;13.40;57.16;99470.59;1045906;28;614;-59
2022/04/08 00:57:06;;;;;;;;;;;;;;;13.40;57.48;99465.25;1045898;28;673;-59
2022/04/08 00:57:57;;;;;;;;;;;;;;;13.40;57.52;99465.25;1044813;28;635;-59
2022/04/08 00:58:47;;;;;;;;;;;;;;;13.43;56.43;99467.63;1044697;28;611;-59
2022/04/08 00:59:38;;;;;;;;;;;;;;;13.42;56.63;99465.94;1044893;28;634;-60
2022/04/08 01:00:28;;;;;;;;;;;;;;;13.43;56.94;99464.94;1044711;28;670;-60
2022/04/08 01:01:19;;;;;;;;;;;;;;;13.43;57.37;99478.31;1045834;28;665;-60
2022/04/08 01:02:09;;;;;;;;;;;;;;;13.42;57.37;99479.31;1045191;28;709;-60
2022/04/08 01:03:00;;;;;;;;;;;;;;;13.41;57.04;99472.28;1045855;28;744;-59
2022/04/08 01:03:52;;;;;;;;;;;;;;;13.43;57.50;99481.00;1045804;28;716;-59
2022/04/08 01:04:42;;;;;;;;;;;;;;;13.41;56.78;99482.97;1045311;28;650;-59
2022/04/08 01:05:33;;;;;;;;;;;;;;;13.40;57.30;99464.41;1044792;28;742;-59
2022/04/08 01:06:23;;;;;;;;;;;;;;;13.39;56.56;99476.09;1045292;28;693;-59
2022/04/08 01:07:14;;;;;;;;;;;;;;;13.39;57.23;99476.09;1045805;28;640;-60
2022/04/08 01:08:04;;;;;;;;;;;;;;;13.39;56.94;99478.75;1045376;28;709;-61
2022/04/08 01:08:55;;;;;;;;;;;;;;;13.38;57.35;99479.75;1046371;28;787;-60
2022/04/08 01:09:45;;;;;;;;;;;;;;;13.36;57.46;99474.56;1046234;28;685;-64
2022/04/08 01:10:35;;;;;;;;;;;;;;;13.36;56.67;99469.19;1045789;28;618;-60
2022/04/08 01:11:26;;;;;;;;;;;;;;;13.37;57.06;99484.25;1045854;28;634;-60
2022/04/08 01:12:16;;;;;;;;;;;;;;;13.35;56.84;99483.56;1044700;28;636;-60
2022/04/08 01:13:07;;;;;;;;;;;;;;;13.35;57.04;99483.56;1045853;28;646;-60
2022/04/08 01:13:57;;;;;;;;;;;;;;;13.36;57.36;99482.56;1045855;28;657;-59
2022/04/08 01:14:47;;;;;;;;;;;;;;;13.35;57.33;99491.59;1045706;28;1042;-59
2022/04/08 01:15:38;;;;;;;;;;;;;;;13.35;56.74;99488.91;1045782;28;626;-60
2022/04/08 01:16:28;;;;;;;;;;;;;;;13.35;57.09;99499.63;1048398;28;698;-60
2022/04/08 01:17:19;;;;;;;;;;;;;;;13.33;56.67;99487.38;1049602;28;1548;-59
2022/04/08 01:18:10;;;;;;;;;;;;;;;13.33;56.81;99495.41;1042467;28;657;-60
2022/04/08 01:19:00;;;;;;;;;;;;;;;13.34;57.45;99481.03;1041605;28;642;-60
2022/04/08 01:19:50;;;;;;;;;;;;;;;13.34;57.43;99491.75;1044170;28;1561;-59
2022/04/08 01:20:41;;;;;;;;;;;;;;;13.33;57.45;99496.25;1044807;28;717;-59
2022/04/08 01:21:31;;;;;;;;;;;;;;;13.34;56.58;99497.09;1045279;28;677;-59
2022/04/08 01:22:22;;;;;;;;;;;;;;;13.33;56.72;99495.41;1045302;28;630;-60
2022/04/08 01:23:12;;;;;;;;;;;;;;;13.33;57.21;99496.25;1045128;28;619;-60
2022/04/08 01:24:02;;;;;;;;;;;;;;;13.33;56.86;99500.75;1045273;28;705;-61
2022/04/08 01:24:53;;;;;;;;;;;;;;;13.31;57.41;99497.38;1045170;28;635;-61
2022/04/08 01:25:44;;;;;;;;;;;;;;;13.31;57.26;99502.75;1045866;28;622;-62
2022/04/08 01:26:34;;;;;;;;;;;;;;;13.32;56.76;99502.59;1045181;28;637;-61
2022/04/08 01:27:24;;;;;;;;;;;;;;;13.31;56.67;99500.91;1045210;28;760;-62
2022/04/08 01:28:15;;;;;;;;;;;;;;;13.30;56.82;99493.88;1045084;28;693;-59
2022/04/08 01:29:05;;;;;;;;;;;;;;;13.31;57.48;99495.56;1045218;28;630;-59
2022/04/08 01:29:56;;;;;;;;;;;;;;;13.30;56.96;99501.91;1045276;28;686;-60
2022/04/08 01:30:46;;;;;;;;;;;;;;;13.30;56.63;99501.91;1049608;28;649;-59
2022/04/08 01:31:43;;;;;;;;;;;;;;;13.31;57.11;99503.59;1050126;28;652;-61
2022/04/08 01:32:33;;;;;;;;;;;;;;;13.31;57.29;99502.75;1045136;28;678;-61
2022/04/08 01:33:24;;;;;;;;;;;;;;;13.30;57.11;99504.56;1045208;28;639;-61
2022/04/08 01:34:14;;;;;;;;;;;;;;;13.28;57.56;99509.22;1045159;28;685;-61
2022/04/08 01:35:05;;;;;;;;;;;;;;;13.28;56.94;99509.22;1045142;28;681;-61
2022/04/08 01:35:55;;;;;;;;;;;;;;;13.27;57.29;99510.22;1045124;28;665;-60
2022/04/08 01:36:45;;;;;;;;;;;;;;;13.28;57.26;99511.06;1045267;28;634;-61
2022/04/08 01:37:36;;;;;;;;;;;;;;;13.30;57.00;99511.75;1045138;28;654;-61
2022/04/08 01:38:26;;;;;;;;;;;;;;;13.30;56.76;99514.44;1045192;28;646;-61
2022/04/08 01:39:17;;;;;;;;;;;;;;;13.30;57.55;99509.91;1045063;28;671;-60
2022/04/08 01:40:07;;;;;;;;;;;;;;;13.32;56.58;99510.63;1045148;28;681;-61
2022/04/08 01:40:57;;;;;;;;;;;;;;;13.29;56.74;99500.22;1045233;28;705;-61
2022/04/08 01:41:48;;;;;;;;;;;;;;;13.29;57.27;99510.91;1045008;28;670;-61
2022/04/08 01:42:38;;;;;;;;;;;;;;;13.29;57.62;99504.72;1045053;28;681;-60
2022/04/08 01:43:29;;;;;;;;;;;;;;;13.26;57.00;99508.53;1045112;28;1886;-61
2022/04/08 01:44:19;;;;;;;;;;;;;;;13.25;56.84;99504.19;1045080;28;623;-62
2022/04/08 01:45:10;;;;;;;;;;;;;;;13.26;56.94;99507.69;1045174;28;685;-62
2022/04/08 01:46:00;;;;;;;;;;;;;;;13.25;57.61;99498.84;1045034;28;627;-62
2022/04/08 01:46:50;;;;;;;;;;;;;;;13.24;56.54;99505.19;1045160;28;791;-62
2022/04/08 01:47:41;;;;;;;;;;;;;;;13.24;57.10;99502.50;1041104;28;603;-61
2022/04/08 01:48:31;;;;;;;;;;;;;;;13.25;56.99;99504.19;1040992;28;685;-61
2022/04/08 01:49:22;;;;;;;;;;;;;;;13.22;57.62;99498.31;1041035;28;618;-61
2022/04/08 01:50:18;;;;;;;;;;;;;;;13.22;57.40;99493.78;1040978;28;689;-61
2022/04/08 01:51:08;;;;;;;;;;;;;;;13.24;57.22;99496.31;1045732;28;677;-60
2022/04/08 01:51:59;;;;;;;;;;;;;;;13.22;56.81;99496.47;1045066;28;709;-61
2022/04/08 01:52:49;;;;;;;;;;;;;;;13.23;56.81;99497.31;1045149;28;621;-61
2022/04/08 01:53:40;;;;;;;;;;;;;;;13.20;56.59;99485.06;1045375;28;616;-61
2022/04/08 01:54:30;;;;;;;;;;;;;;;13.22;57.17;99493.78;1044669;28;634;-60
2022/04/08 01:55:21;;;;;;;;;;;;;;;13.20;57.46;99498.44;1044702;28;664;-60
2022/04/08 01:56:11;;;;;;;;;;;;;;;13.21;57.12;99502.81;1044972;28;638;-61
2022/04/08 01:57:02;;;;;;;;;;;;;;;13.23;57.17;99500.84;1045347;28;645;-61
2022/04/08 01:57:52;;;;;;;;;;;;;;;13.25;56.96;99498.00;1044761;28;700;-61
2022/04/08 01:58:42;;;;;;;;;;;;;;;13.23;57.30;99510.69;1040659;28;630;-61
2022/04/08 01:59:33;;;;;;;;;;;;;;;13.21;57.39;99502.81;1040723;28;696;-61
2022/04/08 02:00:23;;;;;;;;;;;;;;;13.21;57.15;99508.16;1044868;28;629;-61
2022/04/08 02:01:14;;;;;;;;;;;;;;;13.19;56.80;99505.63;1044811;28;641;-61
2022/04/08 02:02:05;;;;;;;;;;;;;;;13.18;57.03;99508.44;1044998;28;692;-61
2022/04/08 02:02:55;;;;;;;;;;;;;;;13.23;56.90;99510.69;1044653;28;689;-61
2022/04/08 02:03:46;;;;;;;;;;;;;;;13.20;56.54;99514.50;1044965;28;1902;-61
2022/04/08 02:04:37;;;;;;;;;;;;;;;13.20;56.96;99511.81;1044922;28;1378;-58
2022/04/08 02:05:27;;;;;;;;;;;;;;;13.19;57.58;99527.03;1045025;28;670;-59
2022/04/08 02:06:18;;;;;;;;;;;;;;;13.18;57.22;99513.81;1045126;28;669;-59
2022/04/08 02:07:08;;;;;;;;;;;;;;;13.16;57.15;99516.63;1045045;28;634;-60
2022/04/08 02:07:58;;;;;;;;;;;;;;;13.14;57.11;99515.06;1045302;28;673;-59
2022/04/08 02:08:50;;;;;;;;;;;;;;;13.14;57.46;99515.06;1045348;28;650;-59
2022/04/08 02:09:40;;;;;;;;;;;;;;;13.14;57.60;99520.41;1044919;28;602;-59
2022/04/08 02:10:30;;;;;;;;;;;;;;;13.14;56.65;99518.56;1045080;28;677;-60
2022/04/08 02:11:21;;;;;;;;;;;;;;;13.15;56.69;99525.63;1044982;28;689;-61
2022/04/08 02:12:11;;;;;;;;;;;;;;;13.16;56.90;99516.63;1045040;28;633;-61
2022/04/08 02:13:02;;;;;;;;;;;;;;;13.18;57.10;99522.66;1045053;28;644;-61
2022/04/08 02:13:52;;;;;;;;;;;;;;;13.19;56.70;99520.84;1045079;28;598;-62
2022/04/08 02:14:43;;;;;;;;;;;;;;;13.22;57.35;99519.69;1045115;28;634;-61
2022/04/08 02:15:33;;;;;;;;;;;;;;;13.24;57.14;99521.25;1045010;28;638;-61
2022/04/08 02:16:23;;;;;;;;;;;;;;;13.23;57.08;99522.22;1045150;28;661;-61
2022/04/08 02:17:14;;;;;;;;;;;;;;;13.23;56.43;99530.25;1044911;28;1454;-60
2022/04/08 02:18:04;;;;;;;;;;;;;;;13.24;56.83;99528.44;1045644;28;654;-60
2022/04/08 02:18:55;;;;;;;;;;;;;;;13.23;57.22;99522.22;1044050;28;642;-60
2022/04/08 02:19:45;;;;;;;;;;;;;;;13.20;57.38;99530.53;1044944;28;634;-60
2022/04/08 02:20:36;;;;;;;;;;;;;;;13.20;56.67;99533.22;1045495;28;610;-60
2022/04/08 02:21:26;;;;;;;;;;;;;;;13.19;57.28;99527.03;1044234;28;639;-60
2022/04/08 02:22:16;;;;;;;;;;;;;;;13.22;56.97;99533.91;1044435;28;623;-61
2022/04/08 02:23:07;;;;;;;;;;;;;;;13.22;56.44;99531.25;1045040;28;665;-60
2022/04/08 02:23:57;;;;;;;;;;;;;;;13.23;57.16;99537.44;1044415;28;630;-60
2022/04/08 02:24:49;;;;;;;;;;;;;;;13.22;56.82;99535.75;1044494;28;690;-61
2022/04/08 02:25:39;;;;;;;;;;;;;;;13.23;56.64;99537.44;1044256;28;607;-61
2022/04/08 02:26:30;;;;;;;;;;;;;;;13.22;56.90;99541.09;1044591;28;736;-60
2022/04/08 02:27:23;;;;;;;;;;;;;;;13.21;57.05;99534.91;1044258;28;614;-61
2022/04/08 02:28:13;;;;;;;;;;;;;;;13.22;56.44;99539.28;1044256;28;646;-60
2022/04/08 02:29:03;;;;;;;;;;;;;;;13.24;57.31;99542.66;1044377;28;682;-61
2022/04/08 02:29:54;;;;;;;;;;;;;;;13.22;56.53;99544.63;1044419;28;701;-61
2022/04/08 02:30:44;;;;;;;;;;;;;;;13.22;56.59;99541.09;1045770;28;620;-61
2022/04/08 02:31:35;;;;;;;;;;;;;;;13.20;56.74;99549.28;1044732;28;717;-61
2022/04/08 02:32:25;;;;;;;;;;;;;;;13.19;56.29;99551.09;1044985;28;637;-60
2022/04/08 02:33:15;;;;;;;;;;;;;;;13.14;56.40;99541.78;1043870;28;729;-61
2022/04/08 02:34:06;;;;;;;;;;;;;;;13.12;57.25;99552.63;1044476;28;705;-60
2022/04/08 02:34:56;;;;;;;;;;;;;;;13.13;56.33;99540.09;1044239;28;646;-60
2022/04/08 02:35:47;;;;;;;;;;;;;;;13.09;56.30;99552.94;1044393;28;751;-61
2022/04/08 02:36:38;;;;;;;;;;;;;;;13.08;56.58;99550.41;1044388;28;630;-61
2022/04/08 02:37:28;;;;;;;;;;;;;;;13.08;57.07;99547.72;1045448;28;629;-61
2022/04/08 02:38:19;;;;;;;;;;;;;;;13.10;56.65;99546.59;1044454;28;761;-60
2022/04/08 02:39:10;;;;;;;;;;;;;;;13.09;57.06;99541.38;1044221;28;618;-60
2022/04/08 02:40:01;;;;;;;;;;;;;;;13.08;56.92;99539.69;1044438;28;673;-61
2022/04/08 02:40:51;;;;;;;;;;;;;;;13.06;56.72;99547.91;1044797;28;716;-60
2022/04/08 02:41:41;;;;;;;;;;;;;;;13.06;56.27;99549.72;1045451;28;630;-60
2022/04/08 02:42:32;;;;;;;;;;;;;;;13.07;57.27;99546.06;1045687;28;669;-60
2022/04/08 02:43:22;;;;;;;;;;;;;;;13.07;56.80;99541.56;1045214;28;978;-59
2022/04/08 02:44:13;;;;;;;;;;;;;;;13.05;57.21;99534.69;1045024;28;759;-60
2022/04/08 02:45:03;;;;;;;;;;;;;;;13.04;56.41;99544.53;1045455;28;627;-60
2022/04/08 02:45:53;;;;;;;;;;;;;;;13.04;56.50;99549.88;1044258;28;694;-60
2022/04/08 02:46:44;;;;;;;;;;;;;;;13.04;57.07;99549.03;1044376;28;1530;-60
2022/04/08 02:47:34;;;;;;;;;;;;;;;13.04;56.80;99546.34;1044951;28;658;-60
2022/04/08 02:48:25;;;;;;;;;;;;;;;13.03;57.17;99545.53;1044870;28;645;-60
2022/04/08 02:49:15;;;;;;;;;;;;;;;13.04;56.28;99546.34;1044862;28;723;-60
2022/04/08 02:50:05;;;;;;;;;;;;;;;13.03;56.16;99550.03;1044847;28;626;-60
2022/04/08 02:50:56;;;;;;;;;;;;;;;13.02;57.15;99541.16;1041026;28;1192;-60
2022/04/08 02:51:46;;;;;;;;;;;;;;;13.04;56.78;99544.53;1041902;28;562;-60
2022/04/08 02:52:37;;;;;;;;;;;;;;;13.05;57.07;99537.34;1040217;28;677;-60
2022/04/08 02:53:27;;;;;;;;;;;;;;;13.05;56.50;99540.88;1041961;28;614;-61
2022/04/08 02:54:18;;;;;;;;;;;;;;;13.06;56.59;99549.72;1040254;28;710;-61
2022/04/08 02:55:08;;;;;;;;;;;;;;;13.05;56.92;99548.03;1041866;28;709;-60
2022/04/08 02:55:58;;;;;;;;;;;;;;;13.03;57.09;99548.19;1040137;28;627;-60
2022/04/08 02:56:49;;;;;;;;;;;;;;;13.02;56.31;99545.66;1041864;28;649;-60
2022/04/08 02:57:46;;;;;;;;;;;;;;;13.01;57.14;99550.16;1041928;28;665;-60
2022/04/08 02:58:37;;;;;;;;;;;;;;;13.04;56.81;99546.34;1040654;28;622;-60
2022/04/08 02:59:27;;;;;;;;;;;;;;;13.05;56.55;99551.56;1040184;28;636;-60
2022/04/08 03:00:18;;;;;;;;;;;;;;;13.03;56.80;99553.53;1041850;28;673;-60
2022/04/08 03:01:10;;;;;;;;;;;;;;;13.02;57.13;99551.84;1040594;28;682;-60
2022/04/08 03:02:00;;;;;;;;;;;;;;;13.03;56.72;99552.69;1040334;28;621;-61
2022/04/08 03:02:51;;;;;;;;;;;;;;;13.01;56.18;99554.66;1040376;28;657;-60
2022/04/08 03:03:41;;;;;;;;;;;;;;;12.99;56.72;99548.63;1040305;28;1890;-60
2022/04/08 03:04:32;;;;;;;;;;;;;;;12.99;56.90;99553.97;1039938;28;1239;-60
2022/04/08 03:05:22;;;;;;;;;;;;;;;12.99;57.24;99556.66;1040002;28;742;-60
2022/04/08 03:06:12;;;;;;;;;;;;;;;13.00;56.33;99558.34;1040094;28;607;-60
2022/04/08 03:07:03;;;;;;;;;;;;;;;12.99;56.57;99557.50;1040708;28;676;-60
2022/04/08 03:07:54;;;;;;;;;;;;;;;12.99;56.56;99556.66;1040267;28;689;-60
2022/04/08 03:08:44;;;;;;;;;;;;;;;12.96;56.50;99551.59;1041854;28;594;-61
2022/04/08 03:09:36;;;;;;;;;;;;;;;12.97;56.42;99553.28;1041696;28;710;-60
2022/04/08 03:10:26;;;;;;;;;;;;;;;12.96;56.80;99560.44;1040275;28;697;-60
2022/04/08 03:11:17;;;;;;;;;;;;;;;12.98;56.98;99560.31;1041736;28;664;-63
2022/04/08 03:12:07;;;;;;;;;;;;;;;12.96;56.28;99567.63;1040090;28;718;-61
2022/04/08 03:12:58;;;;;;;;;;;;;;;12.97;56.87;99563.97;1039890;28;690;-61
2022/04/08 03:13:48;;;;;;;;;;;;;;;12.96;56.86;99562.28;1039981;28;641;-60
2022/04/08 03:14:39;;;;;;;;;;;;;;;12.98;56.96;99568.31;1040101;28;657;-61
2022/04/08 03:15:29;;;;;;;;;;;;;;;12.98;57.08;99565.66;1039943;28;706;-61
2022/04/08 03:16:19;;;;;;;;;;;;;;;12.98;56.29;99566.50;1041830;28;622;-61
2022/04/08 03:17:10;;;;;;;;;;;;;;;12.98;56.42;99566.50;1043547;28;1549;-61
2022/04/08 03:18:00;;;;;;;;;;;;;;;12.98;57.01;99574.53;1044778;28;630;-61
2022/04/08 03:18:51;;;;;;;;;;;;;;;12.96;56.41;99575.66;1044648;28;1486;-61
2022/04/08 03:19:41;;;;;;;;;;;;;;;12.97;56.47;99574.66;1044657;28;732;-62
2022/04/08 03:20:31;;;;;;;;;;;;;;;12.98;56.64;99582.53;1044831;28;693;-61
2022/04/08 03:21:22;;;;;;;;;;;;;;;13.01;56.68;99581.41;1044926;28;681;-61
2022/04/08 03:22:12;;;;;;;;;;;;;;;12.99;57.13;99583.38;1044806;28;728;-58
2022/04/08 03:23:03;;;;;;;;;;;;;;;12.99;56.48;99584.22;1049225;28;709;-60
2022/04/08 03:23:53;;;;;;;;;;;;;;;12.96;57.26;99586.34;1048414;28;1910;-61
2022/04/08 03:24:44;;;;;;;;;;;;;;;12.96;56.71;99591.69;1045442;28;656;-59
2022/04/08 03:25:34;;;;;;;;;;;;;;;12.97;57.09;99596.91;1044895;28;693;-59
2022/04/08 03:26:24;;;;;;;;;;;;;;;12.98;57.10;99595.06;1044839;28;638;-60
2022/04/08 03:27:15;;;;;;;;;;;;;;;12.97;56.25;99594.22;1044862;28;626;-60
2022/04/08 03:28:05;;;;;;;;;;;;;;;12.96;56.32;99595.22;1044606;28;650;-60
2022/04/08 03:28:56;;;;;;;;;;;;;;;12.95;56.68;99590.00;1044741;28;610;-60
2022/04/08 03:29:48;;;;;;;;;;;;;;;12.95;57.32;99596.19;1045268;28;645;-60
2022/04/08 03:30:40;;;;;;;;;;;;;;;12.96;56.92;99595.22;1045316;28;858;-60
2022/04/08 03:31:31;;;;;;;;;;;;;;;12.96;56.82;99605.06;1044895;28;732;-60
2022/04/08 03:32:21;;;;;;;;;;;;;;;12.96;57.12;99599.72;1044664;28;630;-60
2022/04/08 03:33:12;;;;;;;;;;;;;;;12.97;56.41;99594.22;1044749;28;634;-60
2022/04/08 03:34:03;;;;;;;;;;;;;;;12.98;56.56;99598.59;1044836;28;654;-60
2022/04/08 03:34:59;;;;;;;;;;;;;;;12.98;56.90;99592.41;1044779;28;622;-62
2022/04/08 03:35:50;;;;;;;;;;;;;;;12.96;56.18;99594.38;1044821;28;692;-61
2022/04/08 03:36:40;;;;;;;;;;;;;;;12.95;57.05;99600.69;1044528;28;623;-61
2022/04/08 03:37:31;;;;;;;;;;;;;;;12.93;56.81;99594.66;1044767;28;634;-61
2022/04/08 03:38:21;;;;;;;;;;;;;;;12.92;57.38;99601.00;1044680;28;647;-61
2022/04/08 03:39:13;;;;;;;;;;;;;;;12.93;57.28;99597.31;1044814;28;673;-60
2022/04/08 03:40:04;;;;;;;;;;;;;;;12.94;56.32;99596.34;1045291;28;750;-60
2022/04/08 03:40:54;;;;;;;;;;;;;;;12.93;56.43;99595.50;1044818;28;653;-60
2022/04/08 03:41:44;;;;;;;;;;;;;;;12.94;56.90;99601.69;1044675;28;602;-59
2022/04/08 03:42:35;;;;;;;;;;;;;;;12.93;56.43;99600.00;1044737;28;916;-61
2022/04/08 03:43:27;;;;;;;;;;;;;;;12.93;57.13;99603.53;1044720;28;709;-60
2022/04/08 03:44:17;;;;;;;;;;;;;;;12.93;56.42;99598.16;1044715;28;643;-60
2022/04/08 03:45:08;;;;;;;;;;;;;;;12.95;56.72;99598.03;1044748;28;629;-60
2022/04/08 03:45:58;;;;;;;;;;;;;;;12.95;56.45;99598.88;1044308;28;653;-60
2022/04/08 03:46:49;;;;;;;;;;;;;;;12.97;56.66;99593.38;1040622;28;657;-60
2022/04/08 03:47:39;;;;;;;;;;;;;;;12.98;56.23;99601.25;1040519;28;633;-60
2022/04/08 03:48:30;;;;;;;;;;;;;;;13.00;56.97;99601.13;1040635;28;653;-61
2022/04/08 03:49:21;;;;;;;;;;;;;;;12.99;56.20;99604.78;1040619;28;783;-62
2022/04/08 03:50:11;;;;;;;;;;;;;;;12.98;56.57;99598.59;1040541;28;836;-61
2022/04/08 03:51:02;;;;;;;;;;;;;;;12.96;56.44;99600.56;1044668;28;865;-61
2022/04/08 03:51:52;;;;;;;;;;;;;;;12.98;56.51;99603.09;1044773;28;641;-61
2022/04/08 03:52:43;;;;;;;;;;;;;;;12.99;56.92;99599.44;1044654;28;689;-61
2022/04/08 03:53:33;;;;;;;;;;;;;;;12.98;56.55;99593.25;1044930;28;708;-62
2022/04/08 03:54:24;;;;;;;;;;;;;;;12.98;57.17;99597.75;1044415;28;618;-61
2022/04/08 03:55:14;;;;;;;;;;;;;;;12.98;56.35;99603.94;1040572;28;633;-61
2022/04/08 03:56:04;;;;;;;;;;;;;;;12.99;56.40;99602.09;1039991;28;658;-61
2022/04/08 03:56:55;;;;;;;;;;;;;;;12.94;56.82;99601.69;1041163;28;634;-61
2022/04/08 03:57:47;;;;;;;;;;;;;;;12.90;57.27;99601.13;1041077;28;630;-61
2022/04/08 03:58:37;;;;;;;;;;;;;;;12.92;57.35;99598.31;1040118;28;700;-61
2022/04/08 03:59:27;;;;;;;;;;;;;;;12.97;56.22;99601.41;1039885;28;812;-60
2022/04/08 04:00:18;;;;;;;;;;;;;;;13.01;56.26;99602.81;1039648;28;634;-61
2022/04/08 04:01:08;;;;;;;;;;;;;;;13.04;56.24;99599.84;1039987;28;662;-60
2022/04/08 04:02:01;;;;;;;;;;;;;;;13.08;55.90;99604.72;1040018;28;630;-59
2022/04/08 04:02:51;;;;;;;;;;;;;;;13.18;56.05;99596.72;1040486;28;756;-60
2022/04/08 04:03:41;;;;;;;;;;;;;;;13.27;55.88;99595.81;1039844;28;1957;-60
2022/04/08 04:04:32;;;;;;;;;;;;;;;13.38;55.37;99598.34;1039985;28;1301;-60
2022/04/08 04:05:22;;;;;;;;;;;;;;;13.47;55.19;99599.25;1039896;28;654;-60
2022/04/08 04:06:13;;;;;;;;;;;;;;;13.58;55.91;99596.41;1043751;28;1597;-61
2022/04/08 04:07:03;;;;;;;;;;;;;;;13.70;54.72;99597.03;1045302;28;692;-62
2022/04/08 04:07:54;;;;;;;;;;;;;;;13.82;55.14;99595.81;1045144;28;634;-61
2022/04/08 04:08:44;;;;;;;;;;;;;;;13.95;54.92;99598.16;1044216;28;654;-61
2022/04/08 04:09:35;;;;;;;;;;;;;;;14.07;54.59;99591.56;1044624;28;642;-61
2022/04/08 04:10:25;;;;;;;;;;;;;;;14.18;54.34;99589.50;1048034;28;641;-61
2022/04/08 04:11:16;;;;;;;;;;;;;;;14.30;53.77;99591.97;1048541;28;649;-60
2022/04/08 04:12:07;;;;;;;;;;;;;;;14.39;53.52;99593.69;1044665;28;625;-59
2022/04/08 04:12:57;;;;;;;;;;;;;;;14.48;53.57;99587.47;1044660;28;645;-60
2022/04/08 04:13:48;;;;;;;;;;;;;;;14.59;53.48;99590.72;1043934;28;705;-60
2022/04/08 04:14:38;;;;;;;;;;;;;;;14.73;52.88;99594.66;1044156;28;674;-59
2022/04/08 04:15:29;;;;;;;;;;;;;;;14.87;52.47;99596.78;1044095;28;675;-59
2022/04/08 04:16:19;;;;;;;;;;;;;;;15.04;52.22;99591.53;1045224;28;685;-59
2022/04/08 04:17:09;;;;;;;;;;;;;;;15.16;51.83;99583.03;1043971;28;622;-60
2022/04/08 04:18:00;;;;;;;;;;;;;;;15.20;51.91;99592.47;1044070;28;650;-60
2022/04/08 04:18:50;;;;;;;;;;;;;;;15.31;51.46;99593.19;1045198;28;692;-60
2022/04/08 04:19:41;;;;;;;;;;;;;;;15.40;51.50;99589.53;1045293;28;681;-60
2022/04/08 04:20:31;;;;;;;;;;;;;;;15.42;51.72;99587.50;1045203;28;708;-60
2022/04/08 04:21:21;;;;;;;;;;;;;;;15.51;50.99;99590.09;1044139;28;749;-60
2022/04/08 04:22:12;;;;;;;;;;;;;;;15.63;51.15;99586.13;1045296;28;669;-60
2022/04/08 04:23:02;;;;;;;;;;;;;;;15.67;50.96;99585.81;1045289;28;635;-60
2022/04/08 04:23:53;;;;;;;;;;;;;;;15.76;50.97;99583.00;1044605;28;1967;-60
2022/04/08 04:24:43;;;;;;;;;;;;;;;15.83;50.91;99585.84;1043964;28;686;-60
2022/04/08 04:25:34;;;;;;;;;;;;;;;15.86;50.83;99585.53;1046128;28;636;-60
2022/04/08 04:26:24;;;;;;;;;;;;;;;15.85;51.01;99592.75;1041331;28;748;-60
2022/04/08 04:27:14;;;;;;;;;;;;;;;15.88;50.79;99583.53;1041339;28;646;-60
2022/04/08 04:28:05;;;;;;;;;;;;;;;15.94;50.34;99586.38;1041609;28;1522;-60
2022/04/08 04:28:55;;;;;;;;;;;;;;;16.01;50.40;99574.97;1041873;28;689;-60
2022/04/08 04:29:46;;;;;;;;;;;;;;;16.04;50.42;99575.50;1042450;28;712;-60
2022/04/08 04:30:36;;;;;;;;;;;;;;;16.11;50.53;99581.06;1042469;28;638;-60